Meteo Giornale » Osservazioni meteo Francia » Melun

ore: 12:30 - Osservazioni Meteo Melun
Lat. 48° 37' N Lon. 2° 41' E Alt. 95 metri s.l.m.

poco_nuvoloso Europe/Paris

24 °C

Poco Nuvoloso

Temp. 24 Ore

11 °C

24 °C

Est/Nord-Est

7.4 Km/h

Dew point 14 °C

Umidità 53 %

Visibilità  10 Km

Il sole sorge alle ore 05:44

Il sole tramonta alle ore 21:56

Data e Ora Cielo e Fenomeni T °C DP °C Um. % Pres. hPa Vis. km Vento km/h
Oggi h: 12:30 poco_nuvoloso Poco Nuvoloso 24 14 53 1019 10 E/NE 7.4
Oggi h: 12:00 nuvoloso Nuvoloso 23 13 53 1019 10 E/NE 7.4
Oggi h: 11:30 sereno Sereno 23 14 56 1019 10 E 7.4
Oggi h: 11:00 sereno Sereno 23 15 60 1019 10 N 5.5
Oggi h: 10:30 sereno Sereno 22 15 64 1020 10 N 3.7
Oggi h: 10:00 sereno Sereno 21 15 68 1020 10 N 3.7
Oggi h: 09:30 sereno Sereno 20 14 68 1020 10 N 3.7
Oggi h: 09:00 sereno Sereno 19 14 72 1020 10 N 5.5
Oggi h: 08:30 sereno Sereno 18 13 72 1020 10 N 3.7
Oggi h: 08:00 sereno Sereno 16 13 82 1020 10 N 5.5
Oggi h: 07:30 sereno Sereno 14 12 87 1020 10 N 5.5
Oggi h: 07:00 sereno Sereno 12 11 93 1020 10 N 3.7
Oggi h: 06:30 sereno Sereno 11 10 93 1020 10 N 1.8
Oggi h: 06:00 sereno Sereno 11 10 93 1020 10 N 3.7
Oggi h: 05:30 sereno Sereno 11 10 93 1020 10 N 1.8
Oggi h: 05:00 sereno Sereno 11 10 93 1020 10 N 1.8
Oggi h: 04:30 sereno Sereno 12 10 87 1020 10 N 3.7
Oggi h: 04:00 sereno Sereno 12 11 93 1020 10 N 5.5
Oggi h: 03:30 sereno Sereno 12 11 93 1020 10 N 5.5
Oggi h: 03:00 sereno Sereno 12 11 93 1020 10 N 5.5
Oggi h: 02:30 sereno Sereno 12 11 93 1020 10 N 3.7
Oggi h: 02:00 sereno Sereno 13 12 93 1020 10 N 0
Oggi h: 01:30 sereno Sereno 13 11 87 1021 10 N 3.7
Oggi h: 01:00 sereno Sereno 14 12 87 1021 10 N 0
Oggi h: 00:30 sereno Sereno 14 11 82 1021 10 N 3.7
Oggi h: 00:00 sereno Sereno 15 12 82 1021 10 N 3.7
Ieri h: 23:30 sereno Sereno 15 12 82 1021 10 N 3.7
Ieri h: 23:00 sereno Sereno 16 11 72 1021 10 N 1.8
Ieri h: 22:30 sereno Sereno 16 11 72 1021 10 N 0
Ieri h: 22:00 sereno Sereno 17 11 67 1021 10 N 0
Ieri h: 21:30 sereno Sereno 19 12 63 1020 10 N 3.7
Ieri h: 21:00 sereno Sereno 22 13 56 1021 10 N 5.5
Ieri h: 20:30 sereno Sereno 23 13 53 1021 10 SO 7.4
Ieri h: 20:00 sereno Sereno 23 12 49 1021 10 SO 9.3
Ieri h: 19:30 sereno Sereno 23 12 49 1021 10 O/SO 9.3
Ieri h: 19:00 sereno Sereno 21 12 56 1021 10 O/SO 13
Ieri h: 18:30 coperto Coperto 22 12 53 1021 10 O/SO 14.8
Ieri h: 18:00 coperto Coperto 22 12 53 1021 10 SO 16.7
Ieri h: 17:30 coperto Coperto 22 12 53 1021 10 O/SO 14.8
Ieri h: 17:00 molto_nuvoloso Molto Nuvoloso 22 12 53 1021 10 SO 16.7
Ieri h: 16:30 molto_nuvoloso Molto Nuvoloso 22 12 53 1021 10 O/SO 14.8
Ieri h: 16:00 molto_nuvoloso Molto Nuvoloso 22 11 49 1021 10 SO 14.8
Ieri h: 15:30 molto_nuvoloso Molto Nuvoloso 23 13 53 1021 10 O/SO 14.8
Ieri h: 15:00 coperto Coperto 22 14 60 1021 10 SO 13
Ieri h: 14:30 molto_nuvoloso Molto Nuvoloso 22 12 53 1021 10 S/SO 16.7
Ieri h: 14:00 molto_nuvoloso Molto Nuvoloso 22 13 56 1021 10 SO 16.7